Time;durP1;ratioP1;P1;durP2;ratioP2;P2;SDS_P1;SDS_P2;PMS_P1;PMS_P2;Temp;Humidity;BMP_temperature;BMP_pressure;BME280_temperature;BME280_humidity;BME280_pressure;Samples;Min_cycle;Max_cycle;Signal;HPM_P1;HPM_P2
2023/06/16 00:00:13;;;;;;;11.68;8.15;;;15.00;99.90;;;;;;5020137;28;89473;-32
2023/06/16 00:02:41;;;;;;;7.57;6.88;;;14.90;99.90;;;;;;5020183;28;90224;-32
2023/06/16 00:05:11;;;;;;;9.88;8.32;;;15.00;99.90;;;;;;5020370;28;90368;-33
2023/06/16 00:07:39;;;;;;;14.18;8.45;;;14.90;99.90;;;;;;5020532;28;90857;-34
2023/06/16 00:10:06;;;;;;;17.30;9.40;;;14.80;99.90;;;;;;5021931;28;89829;-35
2023/06/16 00:12:33;;;;;;;18.08;8.70;;;14.80;99.90;;;;;;5021404;28;88928;-34
2023/06/16 00:14:59;;;;;;;11.73;8.10;;;14.80;99.90;;;;;;5020070;28;89864;-35
2023/06/16 00:17:26;;;;;;;21.92;7.60;;;14.80;99.90;;;;;;5020722;28;90005;-38
2023/06/16 00:19:55;;;;;;;13.10;8.73;;;14.80;99.90;;;;;;5021052;28;89150;-34
2023/06/16 00:22:22;;;;;;;11.68;8.32;;;14.70;99.90;;;;;;5020123;27;88923;-34
2023/06/16 00:24:47;;;;;;;8.98;6.43;;;14.70;99.90;;;;;;5019974;28;89358;-37
2023/06/16 00:27:13;;;;;;;12.18;8.60;;;14.70;99.90;;;;;;5020600;28;89526;-35
2023/06/16 00:29:40;;;;;;;10.05;7.32;;;14.60;99.90;;;;;;5023753;27;89243;-33
2023/06/16 00:32:06;;;;;;;10.65;7.20;;;14.60;99.90;;;;;;5038112;27;89957;-37
2023/06/16 00:34:32;;;;;;;8.75;7.55;;;14.60;99.90;;;;;;5029378;27;88698;-33
2023/06/16 00:36:58;;;;;;;9.45;7.28;;;14.50;99.90;;;;;;5019530;27;89783;-35
2023/06/16 00:39:24;;;;;;;10.68;7.47;;;14.50;99.90;;;;;;5020872;27;88193;-34
2023/06/16 00:41:50;;;;;;;9.10;8.20;;;14.50;99.90;;;;;;5020259;27;90455;-35
2023/06/16 00:44:15;;;;;;;12.18;8.40;;;14.50;99.90;;;;;;5000907;28;90288;-34
2023/06/16 00:46:41;;;;;;;9.02;8.13;;;14.40;99.90;;;;;;5019579;28;89662;-34
2023/06/16 00:49:06;;;;;;;10.35;8.40;;;14.40;99.90;;;;;;5019814;27;87689;-36
2023/06/16 00:51:33;;;;;;;9.30;8.10;;;14.40;99.90;;;;;;5020262;27;90178;-32
2023/06/16 00:53:59;;;;;;;9.10;8.18;;;14.40;99.90;;;;;;5030752;27;89817;-34
2023/06/16 00:56:26;;;;;;;10.25;8.25;;;14.30;99.90;;;;;;5023039;27;89575;-37
2023/06/16 00:58:53;;;;;;;9.30;8.32;;;14.30;99.90;;;;;;5020834;27;89682;-33
2023/06/16 01:01:19;;;;;;;9.93;8.98;;;14.20;99.90;;;;;;5019932;27;90579;-35
2023/06/16 01:03:46;;;;;;;10.38;9.27;;;14.20;99.90;;;;;;5019721;27;89856;-38
2023/06/16 01:06:43;;;;;;;12.05;7.63;;;14.20;99.90;;;;;;5020273;27;89458;-35
2023/06/16 01:09:26;;;;;;;10.13;8.17;;;14.20;99.90;;;;;;5020972;27;88510;-35
2023/06/16 01:12:06;;;;;;;11.32;9.13;;;14.20;99.90;;;;;;5002288;28;89724;-35
2023/06/16 01:14:50;;;;;;;9.38;8.02;;;14.20;99.90;;;;;;5021148;27;90231;-33
2023/06/16 01:17:17;;;;;;;8.45;7.50;;;14.20;99.90;;;;;;5021192;27;89913;-37
2023/06/16 01:19:49;;;;;;;9.68;8.57;;;14.10;99.90;;;;;;5020401;27;89309;-36
2023/06/16 01:22:24;;;;;;;8.77;7.75;;;14.10;99.90;;;;;;5020430;27;90197;-34
2023/06/16 01:24:53;;;;;;;13.38;8.35;;;14.10;99.90;;;;;;5020337;27;89279;-35
2023/06/16 01:27:21;;;;;;;8.35;7.22;;;14.10;99.90;;;;;;5020883;27;89823;-36
2023/06/16 01:29:49;;;;;;;8.75;6.78;;;14.10;99.90;;;;;;5002248;28;89019;-37
2023/06/16 01:32:16;;;;;;;9.27;8.35;;;14.10;99.90;;;;;;5018706;28;90332;-35
2023/06/16 01:34:43;;;;;;;8.47;7.00;;;14.10;99.90;;;;;;5019061;27;89457;-34
2023/06/16 01:37:09;;;;;;;8.55;7.15;;;14.00;99.90;;;;;;4983552;28;89982;-35
2023/06/16 01:39:37;;;;;;;13.05;6.75;;;14.00;99.90;;;;;;5019404;28;90018;-36
2023/06/16 01:42:03;;;;;;;10.88;6.90;;;14.00;99.90;;;;;;5019324;28;90229;-32
2023/06/16 01:44:31;;;;;;;17.05;6.90;;;14.00;99.90;;;;;;5018848;28;89303;-36
2023/06/16 01:46:57;;;;;;;9.53;7.40;;;14.00;99.90;;;;;;5018644;28;92238;-36
2023/06/16 01:49:23;;;;;;;7.30;6.13;;;14.00;99.90;;;;;;5017464;28;89740;-34
2023/06/16 01:51:49;;;;;;;8.82;6.97;;;14.00;99.90;;;;;;5019008;28;90105;-34
2023/06/16 01:54:14;;;;;;;9.25;6.90;;;14.00;99.90;;;;;;5018402;28;89993;-35
2023/06/16 01:56:40;;;;;;;8.90;7.90;;;13.90;99.90;;;;;;5018890;28;89714;-35
2023/06/16 01:59:06;;;;;;;9.20;6.60;;;13.90;99.90;;;;;;5018795;28;89504;-34
2023/06/16 02:01:48;;;;;;;12.07;7.10;;;13.90;99.90;;;;;;5018694;28;89897;-34
2023/06/16 02:04:23;;;;;;;7.95;6.85;;;13.90;99.90;;;;;;5018652;28;89768;-36
2023/06/16 02:07:04;;;;;;;9.30;8.40;;;13.90;99.90;;;;;;5018815;28;89773;-35
2023/06/16 02:09:32;;;;;;;10.18;7.57;;;13.90;99.90;;;;;;5017460;28;88432;-33
2023/06/16 02:11:59;;;;;;;7.97;7.18;;;13.90;99.90;;;;;;5019335;28;90438;-32
2023/06/16 02:14:27;;;;;;;11.77;7.60;;;13.90;99.90;;;;;;5018884;28;89657;-33
2023/06/16 02:16:53;;;;;;;8.18;7.45;;;13.90;99.90;;;;;;5019265;28;89674;-33
2023/06/16 02:19:19;;;;;;;9.27;8.18;;;13.80;99.90;;;;;;5017743;28;89178;-35
2023/06/16 02:21:44;;;;;;;9.25;8.40;;;13.80;99.90;;;;;;5019174;28;89429;-32
2023/06/16 02:24:10;;;;;;;8.30;7.50;;;13.80;99.90;;;;;;5017823;28;90153;-33
2023/06/16 02:26:40;;;;;;;10.85;8.35;;;13.70;99.90;;;;;;5019286;28;90039;-33
2023/06/16 02:29:05;;;;;;;10.18;8.75;;;13.70;99.90;;;;;;5018890;28;88327;-33
2023/06/16 02:31:31;;;;;;;11.27;8.32;;;13.70;99.90;;;;;;5018033;28;90398;-32
2023/06/16 02:33:57;;;;;;;9.40;8.07;;;13.70;99.90;;;;;;5017593;28;90481;-36
2023/06/16 02:36:26;;;;;;;9.55;8.65;;;13.70;99.90;;;;;;5018664;28;90615;-31
2023/06/16 02:38:52;;;;;;;9.68;8.77;;;13.70;99.90;;;;;;5019346;28;87834;-31
2023/06/16 02:41:17;;;;;;;9.35;8.30;;;13.60;99.90;;;;;;5017801;28;89570;-32
2023/06/16 02:43:43;;;;;;;9.95;8.95;;;13.60;99.90;;;;;;5018126;28;89508;-34
2023/06/16 02:46:09;;;;;;;9.55;8.63;;;13.60;99.90;;;;;;5018238;28;89550;-34
2023/06/16 02:48:34;;;;;;;11.18;9.75;;;13.60;99.90;;;;;;5022248;28;90078;-31
2023/06/16 02:51:00;;;;;;;12.35;10.63;;;13.60;99.90;;;;;;5022073;28;89960;-33
2023/06/16 02:53:29;;;;;;;10.05;9.10;;;13.50;99.90;;;;;;5020647;28;89694;-37
2023/06/16 02:55:56;;;;;;;10.32;9.27;;;13.50;99.90;;;;;;5021101;28;90072;-37
2023/06/16 02:58:22;;;;;;;13.20;9.90;;;13.50;99.90;;;;;;5021123;28;90493;-33
2023/06/16 03:00:48;;;;;;;10.63;9.60;;;13.50;99.90;;;;;;5021384;28;89589;-35
2023/06/16 03:03:14;;;;;;;10.48;9.45;;;13.50;99.90;;;;;;5021683;28;90258;-32
2023/06/16 03:05:40;;;;;;;12.23;11.02;;;13.50;99.90;;;;;;5021927;28;89552;-34
2023/06/16 03:08:06;;;;;;;12.30;10.95;;;13.50;99.90;;;;;;5020421;28;88287;-33
2023/06/16 03:10:31;;;;;;;27.60;10.15;;;13.40;99.90;;;;;;5021111;28;89912;-33
2023/06/16 03:12:57;;;;;;;12.07;10.77;;;13.40;99.90;;;;;;5019841;28;90263;-34
2023/06/16 03:15:25;;;;;;;12.52;11.25;;;13.50;99.90;;;;;;5021473;28;89085;-34
2023/06/16 03:17:51;;;;;;;9.52;8.60;;;13.50;99.90;;;;;;5021114;28;88389;-36
2023/06/16 03:20:17;;;;;;;13.30;10.27;;;13.50;99.90;;;;;;5020675;28;90137;-33
2023/06/16 03:22:42;;;;;;;11.95;9.95;;;13.50;99.90;;;;;;5020306;28;90330;-36
2023/06/16 03:25:08;;;;;;;14.50;11.32;;;13.50;99.90;;;;;;5021280;28;90780;-35
2023/06/16 03:27:34;;;;;;;14.27;11.98;;;13.50;99.90;;;;;;5020046;28;89755;-36
2023/06/16 03:30:00;;;;;;;12.25;10.93;;;13.50;99.90;;;;;;5002304;28;90076;-34
2023/06/16 03:32:27;;;;;;;12.52;10.93;;;13.50;99.90;;;;;;5019190;28;89656;-37
2023/06/16 03:34:53;;;;;;;12.18;10.82;;;13.60;99.90;;;;;;5002304;28;91118;-36
2023/06/16 03:37:20;;;;;;;13.60;10.55;;;13.60;99.90;;;;;;5020427;28;89029;-31
2023/06/16 03:39:46;;;;;;;13.25;11.00;;;13.60;99.90;;;;;;5021013;28;89717;-34
2023/06/16 03:42:12;;;;;;;13.60;11.88;;;13.60;99.90;;;;;;5020499;28;89679;-34
2023/06/16 03:44:37;;;;;;;19.23;12.32;;;13.60;99.90;;;;;;5020636;27;89247;-32
2023/06/16 03:47:03;;;;;;;12.73;11.38;;;13.60;99.90;;;;;;5019846;28;89699;-33
2023/06/16 03:49:29;;;;;;;18.40;13.38;;;13.60;99.90;;;;;;5020090;28;89910;-35
2023/06/16 03:51:56;;;;;;;14.23;12.35;;;13.70;99.90;;;;;;5019944;28;90170;-32
2023/06/16 03:54:22;;;;;;;15.63;13.23;;;13.70;99.90;;;;;;5019648;28;90152;-37
2023/06/16 03:56:48;;;;;;;14.70;12.85;;;13.80;99.90;;;;;;5019778;28;89080;-33
2023/06/16 03:59:13;;;;;;;19.08;14.05;;;13.80;99.90;;;;;;5019278;28;90048;-34
2023/06/16 04:01:41;;;;;;;14.73;13.32;;;13.80;99.90;;;;;;5020188;28;90729;-34
2023/06/16 04:04:07;;;;;;;15.38;13.98;;;13.90;99.90;;;;;;5019960;28;90005;-34
2023/06/16 04:06:34;;;;;;;14.85;13.38;;;14.00;99.90;;;;;;5019655;28;88565;-34
2023/06/16 04:09:01;;;;;;;14.15;12.88;;;14.00;99.90;;;;;;5019852;28;90690;-36
2023/06/16 04:11:27;;;;;;;16.48;13.93;;;14.10;99.90;;;;;;5006630;28;90896;-33
2023/06/16 04:13:53;;;;;;;13.00;11.80;;;14.10;99.90;;;;;;5019975;28;90659;-36
2023/06/16 04:16:19;;;;;;;14.07;12.05;;;14.20;99.90;;;;;;5019905;28;90133;-34
2023/06/16 04:18:48;;;;;;;13.68;10.18;;;14.30;99.90;;;;;;5020013;28;89699;-32
2023/06/16 04:21:14;;;;;;;14.85;11.82;;;14.30;99.90;;;;;;5019511;28;90456;-36
2023/06/16 04:23:40;;;;;;;13.10;10.82;;;14.40;99.90;;;;;;5019536;28;89279;-35
2023/06/16 04:26:07;;;;;;;11.27;10.05;;;14.40;99.90;;;;;;5020233;28;88283;-37
2023/06/16 04:28:33;;;;;;;12.55;11.07;;;14.40;99.90;;;;;;5018620;28;90617;-36
2023/06/16 04:31:00;;;;;;;13.73;11.00;;;14.50;99.90;;;;;;5036671;22;89219;-33
2023/06/16 04:33:26;;;;;;;12.20;10.90;;;14.70;99.90;;;;;;4999562;28;89587;-36
2023/06/16 04:35:52;;;;;;;11.27;10.10;;;14.70;99.90;;;;;;4998880;28;89222;-37
2023/06/16 04:38:19;;;;;;;10.48;9.43;;;15.00;99.90;;;;;;4999222;28;90460;-32
2023/06/16 04:40:45;;;;;;;12.02;9.77;;;15.10;99.90;;;;;;4999913;28;89851;-36
2023/06/16 04:43:11;;;;;;;10.48;9.25;;;15.30;99.90;;;;;;4999821;28;89198;-34
2023/06/16 04:45:37;;;;;;;13.27;10.10;;;15.50;99.90;;;;;;4998989;28;89286;-34
2023/06/16 04:48:02;;;;;;;9.57;8.68;;;15.70;99.90;;;;;;4999299;28;90230;-35
2023/06/16 04:50:28;;;;;;;11.40;9.95;;;15.90;99.90;;;;;;4999879;28;90083;-37
2023/06/16 04:52:54;;;;;;;10.68;8.77;;;16.00;99.90;;;;;;5000105;28;90017;-35
2023/06/16 04:55:20;;;;;;;9.13;8.32;;;16.20;99.90;;;;;;4999392;28;88601;-35
2023/06/16 04:57:46;;;;;;;11.13;9.40;;;16.30;99.90;;;;;;5000111;28;90714;-37
2023/06/16 05:00:13;;;;;;;11.20;9.70;;;16.50;99.90;;;;;;4999242;28;90842;-33
2023/06/16 05:02:40;;;;;;;11.02;10.05;;;16.60;99.90;;;;;;4999759;28;90571;-33
2023/06/16 05:05:06;;;;;;;12.43;11.20;;;16.80;99.90;;;;;;4999708;28;87578;-34
2023/06/16 05:07:32;;;;;;;16.58;11.15;;;17.00;99.90;;;;;;4998834;28;89950;-31
2023/06/16 05:09:58;;;;;;;14.27;10.82;;;17.20;99.90;;;;;;4997808;28;89836;-33
2023/06/16 05:12:27;;;;;;;11.80;10.57;;;17.30;99.90;;;;;;4999105;28;89212;-35
2023/06/16 05:14:53;;;;;;;10.40;9.30;;;17.60;99.90;;;;;;4999633;28;90262;-36
2023/06/16 05:17:19;;;;;;;12.18;10.88;;;17.50;99.90;;;;;;4999007;28;90037;-34
2023/06/16 05:19:44;;;;;;;12.02;10.85;;;17.60;99.90;;;;;;4999008;28;88952;-36
2023/06/16 05:22:10;;;;;;;11.18;10.18;;;17.80;99.90;;;;;;4998094;28;89992;-35
2023/06/16 05:24:36;;;;;;;12.32;10.98;;;18.00;99.90;;;;;;4998499;28;90225;-37
2023/06/16 05:27:01;;;;;;;11.90;10.70;;;18.30;99.90;;;;;;4998258;28;90769;-34
2023/06/16 05:29:30;;;;;;;12.57;10.88;;;18.40;99.90;;;;;;4999084;28;89554;-35
2023/06/16 05:31:55;;;;;;;11.45;10.38;;;18.50;99.90;;;;;;5017920;28;89843;-36
2023/06/16 05:34:21;;;;;;;13.13;11.75;;;18.80;99.90;;;;;;5019105;28;89646;-36
2023/06/16 05:36:47;;;;;;;10.82;9.88;;;18.70;99.90;;;;;;5018170;28;90487;-33
2023/06/16 05:39:12;;;;;;;15.93;10.23;;;18.90;99.90;;;;;;5018773;28;89660;-36
2023/06/16 05:41:38;;;;;;;12.13;10.18;;;19.10;99.90;;;;;;5017888;28;90451;-37
2023/06/16 05:44:04;;;;;;;12.05;10.85;;;19.20;99.90;;;;;;5018675;28;89446;-38
2023/06/16 05:46:29;;;;;;;12.88;11.57;;;19.40;99.90;;;;;;5017502;28;90057;-35
2023/06/16 05:48:57;;;;;;;13.63;11.27;;;19.30;99.90;;;;;;5017831;28;90533;-34
2023/06/16 05:51:23;;;;;;;12.57;11.27;;;19.70;99.90;;;;;;5017027;28;91037;-37
2023/06/16 05:53:48;;;;;;;13.98;12.55;;;19.80;99.90;;;;;;5020609;27;89371;-34
2023/06/16 05:56:14;;;;;;;16.50;13.35;;;20.00;99.90;;;;;;5035134;27;90479;-35
2023/06/16 05:58:40;;;;;;;12.20;11.10;;;20.00;99.90;;;;;;5003038;27;90105;-34
2023/06/16 06:01:06;;;;;;;12.10;10.93;;;20.30;99.90;;;;;;5037492;27;89618;-38
2023/06/16 06:03:32;;;;;;;10.52;9.52;;;20.30;99.90;;;;;;5020454;27;90597;-33
2023/06/16 06:05:58;;;;;;;13.43;11.20;;;20.50;99.90;;;;;;5018017;27;89840;-34
2023/06/16 06:08:27;;;;;;;14.27;12.88;;;20.90;99.90;;;;;;5017727;28;90052;-33
2023/06/16 06:10:56;;;;;;;12.45;11.13;;;21.00;99.90;;;;;;5017601;28;89661;-33
2023/06/16 06:13:21;;;;;;;13.50;12.10;;;21.40;99.90;;;;;;5017472;28;89440;-35
2023/06/16 06:15:47;;;;;;;12.77;11.57;;;21.50;99.90;;;;;;5011840;28;90275;-36
2023/06/16 06:18:13;;;;;;;14.30;11.75;;;21.60;99.90;;;;;;5017274;28;89570;-36
2023/06/16 06:20:39;;;;;;;10.27;9.27;;;21.70;99.90;;;;;;5019322;28;89678;-33
2023/06/16 06:23:05;;;;;;;12.25;10.82;;;22.10;99.90;;;;;;5022895;28;88894;-35
2023/06/16 06:25:31;;;;;;;12.23;11.05;;;22.10;99.90;;;;;;5012861;28;90201;-36
2023/06/16 06:27:57;;;;;;;11.48;10.30;;;22.10;99.90;;;;;;5021828;28;89705;-33
2023/06/16 06:30:24;;;;;;;9.95;8.88;;;22.20;99.90;;;;;;5020475;28;89233;-34
2023/06/16 06:32:50;;;;;;;25.13;9.85;;;22.40;99.90;;;;;;5022190;28;88953;-37
2023/06/16 06:35:16;;;;;;;10.18;9.18;;;22.70;99.90;;;;;;5022345;28;90159;-36
2023/06/16 06:37:42;;;;;;;9.55;8.80;;;22.50;99.90;;;;;;5021420;27;90922;-34
2023/06/16 06:40:08;;;;;;;10.60;9.50;;;22.70;99.90;;;;;;5021569;28;90386;-34
2023/06/16 06:42:34;;;;;;;10.30;9.40;;;23.10;99.90;;;;;;5021564;28;89814;-33
2023/06/16 06:45:01;;;;;;;10.18;9.27;;;23.40;99.90;;;;;;5021601;28;88653;-37
2023/06/16 06:47:26;;;;;;;9.63;8.48;;;23.40;99.90;;;;;;5021382;28;89720;-31
2023/06/16 06:49:53;;;;;;;9.70;8.70;;;23.30;99.90;;;;;;5021383;28;90103;-32
2023/06/16 06:52:19;;;;;;;7.53;6.83;;;23.60;99.90;;;;;;5021146;28;89461;-37
2023/06/16 06:54:45;;;;;;;9.63;8.20;;;23.80;99.90;;;;;;5027260;27;90959;-34
2023/06/16 06:57:12;;;;;;;8.60;7.80;;;23.50;99.90;;;;;;5029097;27;89997;-33
2023/06/16 06:59:40;;;;;;;6.82;6.22;;;23.80;99.90;;;;;;5029857;27;89644;-37
2023/06/16 07:02:06;;;;;;;8.77;7.97;;;24.20;99.90;;;;;;5041890;27;90712;-34
2023/06/16 07:04:32;;;;;;;8.75;7.90;;;24.30;99.90;;;;;;5040446;27;90541;-35
2023/06/16 07:06:58;;;;;;;12.30;8.73;;;24.40;98.70;;;;;;5022353;27;90678;-35
2023/06/16 07:09:24;;;;;;;11.27;8.02;;;24.50;97.60;;;;;;5021579;28;89623;-34
2023/06/16 07:11:49;;;;;;;8.00;7.20;;;24.50;98.50;;;;;;5020902;28;89173;-33
2023/06/16 07:14:15;;;;;;;7.80;7.20;;;24.60;98.90;;;;;;5021082;28;90106;-35
2023/06/16 07:16:40;;;;;;;8.32;7.63;;;25.00;97.50;;;;;;5020107;28;90572;-34
2023/06/16 07:19:06;;;;;;;7.72;7.13;;;25.20;95.50;;;;;;5018891;28;89378;-36
2023/06/16 07:21:32;;;;;;;8.90;8.10;;;25.30;98.40;;;;;;5018659;28;89089;-34
2023/06/16 07:23:57;;;;;;;9.63;7.18;;;25.50;91.00;;;;;;5019592;28;90685;-35
2023/06/16 07:26:23;;;;;;;8.98;7.38;;;25.40;91.70;;;;;;5018071;28;91817;-32
2023/06/16 07:28:49;;;;;;;8.00;7.20;;;25.30;75.20;;;;;;5020219;27;90148;-35
2023/06/16 07:31:14;;;;;;;7.72;7.03;;;25.20;79.10;;;;;;5018182;27;88192;-33
2023/06/16 07:33:40;;;;;;;10.90;7.95;;;25.10;90.90;;;;;;5017818;28;90478;-35
2023/06/16 07:36:06;;;;;;;7.68;6.78;;;25.40;82.00;;;;;;5015271;28;89741;-34
2023/06/16 07:38:32;;;;;;;7.20;6.70;;;25.80;80.10;;;;;;5023355;27;88801;-34
2023/06/16 07:40:57;;;;;;;6.95;6.35;;;25.90;74.00;;;;;;5025960;27;90104;-37
2023/06/16 07:43:24;;;;;;;13.77;7.30;;;25.90;74.30;;;;;;5029391;27;90761;-34
2023/06/16 07:45:51;;;;;;;7.82;7.03;;;25.80;74.60;;;;;;5019321;27;89160;-33
2023/06/16 07:48:16;;;;;;;7.57;6.90;;;26.00;73.10;;;;;;5019770;28;89856;-33
2023/06/16 07:50:42;;;;;;;8.00;7.05;;;26.10;73.00;;;;;;5019838;28;89907;-33
2023/06/16 07:53:08;;;;;;;7.45;6.88;;;25.90;74.40;;;;;;5019941;28;89046;-33
2023/06/16 07:55:33;;;;;;;7.97;7.38;;;25.90;73.00;;;;;;5020398;28;89326;-33
2023/06/16 07:57:59;;;;;;;7.55;6.95;;;25.70;71.00;;;;;;5019909;28;89776;-32
2023/06/16 08:00:25;;;;;;;7.30;6.70;;;25.80;74.50;;;;;;5027417;27;89282;-35
2023/06/16 08:02:51;;;;;;;7.13;6.43;;;26.20;72.30;;;;;;5040253;27;90838;-34
2023/06/16 08:05:17;;;;;;;8.32;7.45;;;26.10;72.20;;;;;;5030649;27;89659;-38
2023/06/16 08:07:43;;;;;;;9.88;6.50;;;26.40;72.60;;;;;;5002448;28;89838;-34
2023/06/16 08:10:09;;;;;;;7.03;6.35;;;26.30;70.20;;;;;;5020504;28;88947;-35
2023/06/16 08:12:35;;;;;;;6.50;5.97;;;26.30;69.30;;;;;;5020256;28;89327;-35
2023/06/16 08:15:02;;;;;;;7.22;6.53;;;26.70;69.30;;;;;;5023270;27;90245;-33
2023/06/16 08:17:28;;;;;;;7.93;6.97;;;26.70;68.30;;;;;;5021949;27;90718;-34
2023/06/16 08:19:54;;;;;;;6.93;6.43;;;26.20;66.20;;;;;;5020179;28;89349;-37
2023/06/16 08:22:20;;;;;;;6.30;5.85;;;26.50;67.20;;;;;;5019218;28;90325;-35
2023/06/16 08:24:45;;;;;;;7.85;7.13;;;26.60;66.80;;;;;;5019506;28;88823;-35
2023/06/16 08:27:11;;;;;;;6.18;5.60;;;26.70;66.60;;;;;;5022673;27;89723;-33
2023/06/16 08:29:37;;;;;;;7.07;5.90;;;26.80;66.70;;;;;;5039134;27;88906;-36
2023/06/16 08:32:03;;;;;;;7.20;6.50;;;26.90;65.50;;;;;;5038770;27;90289;-34
2023/06/16 08:34:29;;;;;;;8.15;6.88;;;26.70;66.20;;;;;;5012125;28;88285;-35
2023/06/16 08:36:55;;;;;;;7.20;6.53;;;27.00;66.20;;;;;;5001402;28;88168;-36
2023/06/16 08:39:21;;;;;;;6.35;5.85;;;26.80;65.40;;;;;;5029135;27;88484;-36
2023/06/16 08:41:49;;;;;;;7.95;6.97;;;26.80;66.60;;;;;;5037872;27;90245;-35
2023/06/16 08:44:18;;;;;;;6.88;6.25;;;26.70;65.70;;;;;;5037303;27;89406;-36
2023/06/16 08:46:44;;;;;;;6.72;5.88;;;27.00;67.30;;;;;;5037393;27;89094;-34
2023/06/16 08:49:14;;;;;;;10.77;6.47;;;26.90;67.30;;;;;;5030029;27;89997;-34
2023/06/16 08:51:50;;;;;;;8.38;7.60;;;27.30;66.60;;;;;;5035810;27;89988;-34
2023/06/16 08:54:19;;;;;;;7.68;6.97;;;27.10;65.00;;;;;;5039401;27;89390;-34
2023/06/16 08:56:47;;;;;;;6.75;5.88;;;27.20;64.90;;;;;;5019270;27;87663;-36
2023/06/16 08:59:15;;;;;;;7.05;6.45;;;27.40;65.30;;;;;;5001321;28;89862;-35
2023/06/16 09:01:42;;;;;;;7.70;6.88;;;27.10;65.10;;;;;;5019341;28;89934;-42
2023/06/16 09:04:13;;;;;;;6.57;5.95;;;27.10;65.90;;;;;;5019150;27;90049;-36
2023/06/16 09:06:47;;;;;;;7.40;6.57;;;27.50;66.10;;;;;;5006410;28;89975;-37
2023/06/16 09:09:13;;;;;;;13.80;7.03;;;27.60;64.50;;;;;;5018765;28;89855;-34
2023/06/16 09:11:39;;;;;;;7.45;6.75;;;27.20;65.00;;;;;;5019512;27;90003;-33
2023/06/16 09:14:11;;;;;;;7.97;6.50;;;27.60;65.90;;;;;;5020028;27;88450;-36
2023/06/16 09:16:39;;;;;;;10.07;6.35;;;27.60;63.90;;;;;;5019703;28;89306;-36
2023/06/16 09:19:08;;;;;;;6.68;6.18;;;27.60;64.70;;;;;;5019526;27;89241;-34
2023/06/16 09:21:35;;;;;;;9.43;6.45;;;27.50;64.10;;;;;;5019760;27;90284;-33
2023/06/16 09:24:01;;;;;;;7.38;6.65;;;27.60;63.30;;;;;;5019234;27;89974;-33
2023/06/16 09:26:35;;;;;;;8.73;7.82;;;27.50;63.40;;;;;;5019457;28;89855;-34
2023/06/16 09:29:21;;;;;;;7.40;6.90;;;26.90;62.90;;;;;;5018938;27;89975;-36
2023/06/16 09:31:47;;;;;;;7.13;6.45;;;27.10;63.80;;;;;;5018236;27;90265;-33
2023/06/16 09:34:13;;;;;;;14.90;7.93;;;27.30;63.30;;;;;;5019453;27;89697;-36
2023/06/16 09:36:39;;;;;;;7.00;6.40;;;27.50;63.70;;;;;;5018127;27;90729;-36
2023/06/16 09:39:07;;;;;;;10.25;7.60;;;27.50;62.60;;;;;;5001822;28;89041;-34
2023/06/16 09:41:36;;;;;;;6.90;6.30;;;27.50;63.80;;;;;;5021906;27;90423;-35
2023/06/16 09:44:02;;;;;;;7.93;7.32;;;27.60;64.40;;;;;;5019223;28;89648;-33
2023/06/16 09:46:29;;;;;;;7.57;6.88;;;27.50;62.60;;;;;;5005717;27;91274;-33
2023/06/16 09:48:54;;;;;;;6.82;6.22;;;27.40;63.30;;;;;;5017937;28;88772;-34
2023/06/16 09:51:22;;;;;;;6.57;6.07;;;27.40;63.70;;;;;;5020781;27;90671;-34
2023/06/16 09:53:49;;;;;;;6.30;5.70;;;27.60;62.60;;;;;;5027769;27;90790;-36
2023/06/16 09:56:16;;;;;;;6.15;5.30;;;27.70;63.90;;;;;;5024157;27;90401;-33
2023/06/16 09:58:43;;;;;;;6.35;5.85;;;27.60;61.90;;;;;;5020621;27;89858;-33
2023/06/16 10:01:10;;;;;;;6.70;5.83;;;27.50;59.70;;;;;;5021118;27;90298;-34
2023/06/16 10:03:41;;;;;;;6.63;6.03;;;27.30;60.00;;;;;;5005208;28;90698;-34
2023/06/16 10:06:19;;;;;;;6.55;5.95;;;27.30;60.00;;;;;;5017391;28;88900;-35
2023/06/16 10:08:47;;;;;;;6.35;5.75;;;27.30;59.00;;;;;;5023492;27;88767;-35
2023/06/16 10:11:16;;;;;;;6.10;5.50;;;27.40;60.70;;;;;;5021046;27;90702;-36
2023/06/16 10:13:51;;;;;;;8.57;6.10;;;27.30;60.70;;;;;;5017961;27;90431;-34
2023/06/16 10:16:20;;;;;;;5.90;5.28;;;27.30;58.30;;;;;;5023355;27;89689;-35
2023/06/16 10:18:47;;;;;;;5.75;5.13;;;27.20;57.90;;;;;;5023379;27;89787;-36
2023/06/16 10:21:13;;;;;;;6.20;5.60;;;27.10;57.30;;;;;;5023437;27;90077;-36
2023/06/16 10:23:39;;;;;;;5.78;5.30;;;27.20;57.70;;;;;;5016396;28;89381;-36
2023/06/16 10:26:05;;;;;;;6.00;5.40;;;27.30;57.20;;;;;;5016954;28;90054;-34
2023/06/16 10:28:33;;;;;;;5.85;5.35;;;27.40;56.80;;;;;;5015790;28;88974;-38
2023/06/16 10:30:59;;;;;;;6.50;4.68;;;27.20;55.70;;;;;;5015647;28;89668;-36
2023/06/16 10:33:28;;;;;;;8.35;4.68;;;27.10;56.40;;;;;;5023709;27;89448;-35
2023/06/16 10:35:56;;;;;;;7.63;5.28;;;27.30;55.30;;;;;;5024593;27;89142;-34
2023/06/16 10:38:33;;;;;;;5.90;4.65;;;27.20;55.00;;;;;;5025641;27;89500;-36
2023/06/16 10:41:06;;;;;;;5.82;5.07;;;27.40;56.60;;;;;;5020705;27;90068;-33
2023/06/16 10:43:32;;;;;;;4.75;4.30;;;27.10;54.90;;;;;;5020118;27;91223;-33
2023/06/16 10:46:14;;;;;;;5.70;5.07;;;27.20;56.20;;;;;;5018230;27;90199;-34
2023/06/16 10:49:04;;;;;;;4.68;4.28;;;27.30;55.40;;;;;;5016384;28;89143;-37
2023/06/16 10:51:52;;;;;;;4.72;4.25;;;27.20;52.60;;;;;;5021879;27;90186;-33
2023/06/16 10:54:33;;;;;;;5.60;3.85;;;26.80;52.10;;;;;;5012006;27;90290;-35
2023/06/16 10:57:06;;;;;;;5.03;4.18;;;26.90;52.70;;;;;;5014119;27;89506;-35
2023/06/16 11:00:11;;;;;;;6.32;4.63;;;26.80;52.60;;;;;;5018022;27;88711;-35
2023/06/16 11:03:03;;;;;;;4.13;3.83;;;27.00;53.10;;;;;;4981938;27;90426;-35
2023/06/16 11:05:40;;;;;;;4.38;3.97;;;26.70;52.50;;;;;;4992637;28;89425;-34
2023/06/16 11:08:13;;;;;;;5.23;4.83;;;26.60;53.20;;;;;;5016513;27;89546;-36
2023/06/16 11:11:03;;;;;;;4.25;3.92;;;26.40;53.60;;;;;;5018395;28;90207;-36
2023/06/16 11:13:40;;;;;;;6.00;4.50;;;26.20;53.60;;;;;;5018764;28;89858;-35
2023/06/16 11:16:06;;;;;;;5.13;4.70;;;26.30;54.90;;;;;;5018518;28;90447;-34
2023/06/16 11:18:35;;;;;;;4.75;4.35;;;26.70;56.40;;;;;;5017604;28;90291;-34
2023/06/16 11:21:07;;;;;;;7.45;4.57;;;26.70;55.90;;;;;;5018212;28;89147;-36
2023/06/16 11:23:34;;;;;;;5.55;5.03;;;26.80;56.50;;;;;;5017675;28;91002;-35
2023/06/16 11:26:19;;;;;;;4.38;3.97;;;26.70;56.40;;;;;;5018218;28;90000;-35
2023/06/16 11:28:47;;;;;;;5.00;4.45;;;26.80;55.10;;;;;;5018622;27;89929;-34
2023/06/16 11:31:14;;;;;;;6.32;4.60;;;26.90;55.80;;;;;;5018043;28;88694;-37
2023/06/16 11:33:40;;;;;;;4.40;4.00;;;26.60;55.60;;;;;;5017167;28;90648;-35
2023/06/16 11:36:23;;;;;;;6.57;5.20;;;26.70;55.40;;;;;;5017687;28;90104;-39
2023/06/16 11:38:51;;;;;;;5.10;4.55;;;26.80;54.10;;;;;;5018283;27;88934;-36
2023/06/16 11:41:19;;;;;;;;;;;26.70;54.00;;;;;;5018147;28;88899;-33
2023/06/16 11:43:46;;;;;;;6.95;4.45;;;26.60;53.80;;;;;;5035809;27;89859;-34
2023/06/16 11:46:12;;;;;;;6.15;3.92;;;26.70;55.70;;;;;;5038158;27;89458;-37
2023/06/16 11:48:38;;;;;;;7.40;4.28;;;26.50;52.70;;;;;;5037277;27;90510;-35
2023/06/16 11:51:07;;;;;;;8.50;4.53;;;26.50;53.20;;;;;;5025241;27;88777;-35
2023/06/16 11:53:34;;;;;;;6.30;5.38;;;26.30;54.20;;;;;;5017672;28;89908;-37
2023/06/16 11:56:00;;;;;;;5.18;4.78;;;26.40;55.20;;;;;;5018425;28;89634;-35
2023/06/16 11:58:29;;;;;;;6.30;3.95;;;26.20;54.90;;;;;;5017314;28;88197;-34
2023/06/16 12:01:00;;;;;;;4.82;4.45;;;26.40;55.20;;;;;;4999476;28;90432;-36
2023/06/16 12:03:31;;;;;;;4.85;4.45;;;26.30;54.00;;;;;;5016744;28;90637;-36
2023/06/16 12:05:58;;;;;;;5.50;4.80;;;26.30;54.10;;;;;;5016851;28;90594;-36
2023/06/16 12:08:39;;;;;;;4.33;3.90;;;26.40;54.50;;;;;;5016839;28;89383;-35
2023/06/16 12:11:06;;;;;;;9.05;5.03;;;26.40;54.80;;;;;;5017608;28;87997;-34
2023/06/16 12:13:35;;;;;;;5.30;4.60;;;26.30;54.00;;;;;;5017605;28;89887;-33
2023/06/16 12:16:04;;;;;;;4.63;4.25;;;26.10;53.20;;;;;;5017436;27;90664;-36
2023/06/16 12:18:30;;;;;;;4.70;4.30;;;26.00;53.60;;;;;;5017133;28;89918;-38
2023/06/16 12:20:56;;;;;;;4.90;4.50;;;26.00;53.90;;;;;;5018200;28;88976;-33
2023/06/16 12:23:22;;;;;;;5.13;4.63;;;26.00;54.50;;;;;;5017604;28;90628;-33
2023/06/16 12:25:48;;;;;;;5.45;4.93;;;25.90;54.10;;;;;;5017242;28;91327;-34
2023/06/16 12:28:20;;;;;;;5.78;5.35;;;25.90;53.80;;;;;;5016964;28;91723;-34
2023/06/16 12:30:47;;;;;;;5.13;4.55;;;25.90;54.20;;;;;;5021266;27;89786;-35
2023/06/16 12:33:13;;;;;;;5.03;4.63;;;25.70;54.60;;;;;;4998677;28;90219;-37
2023/06/16 12:35:40;;;;;;;5.70;5.20;;;25.80;54.70;;;;;;5020472;27;89957;-34
2023/06/16 12:38:05;;;;;;;6.20;4.97;;;25.80;55.10;;;;;;5007810;28;89636;-35
2023/06/16 12:40:31;;;;;;;5.68;5.18;;;26.00;56.00;;;;;;5011085;28;87676;-37
2023/06/16 12:43:15;;;;;;;4.85;4.45;;;25.90;55.10;;;;;;5013352;28;90190;-35